Aeroporto :
LOGIN :

Iscrizione | Disclaimer

   EN    FR    IT 

 










Sommario :    VFR   VFR Marginale   IFR   IFR Intensivo   IFR Molto Intensivo
Visibilità : 
Base nubi : 
>= 8 km
>= 3000ft
5 / 8 km
1000 / 3000 ft
1500m / 5 km
500 / 1000 ft
800 / 1500m
200 / 500 ft
< 800m
< 200 ft
Simboli :   Temporali  Nebbia  Neve Forte  Precipitazioni Forti  Vento > 20 kt
SIGMETs :   Varie  Temporali  Ghiacco  Turbolenza  Onda orograficha  Ceneri Vulcaniche







- Altitudine del aeroporto : 401 ft
- Codice IATA : LEQ
- Carte del aeroporto


EGHC - Land's End

ULTIMO METAR :
  • 241150Z 30010KT 9999 FEW011 15/12 Q1021

METARs OBSOLETI :
  • 241120Z 31011KT 9999 FEW012 15/12 Q1021
  • 241050Z 31011KT 9999 FEW010 15/13 Q1021
  • 241020Z 30012KT 9999 FEW010 14/11 Q1021
  • 240950Z 30012KT 9999 FEW010 14/12 Q1021
  • 240920Z 31012KT 9999 FEW010 SCT018 14/12 Q1021
  • 240850Z 32013KT 9999 FEW006 SCT016 13/12 Q1021

TAF TAF EGHC
Valido dal 24 a 12 ore il 24 a 18 ore UTC


241055Z 2412/2418 33012KT 9999 SCT020
TEMPO 2412/2418 BKN009
Nessun NOTAM noto per questo aeroporto.



MetMap, La meteo Aeronautica in un colpo d'occhio ! - Copyright ORBIFLY Dicembre 2007 - Disclaimer

ORBIFLY MET'MAP TEAM :

Programmazione e sviluppo : Alexandra Zaïnal
Concezione e sviluppo : Baudouin d'Aumeries
Co-Programmazione e sviluppo : Marc-Olivier Méhu
Supporto tecnico e logistico : Manuel Goepfert
Aiuto per la traduzione : Arnaldo La Scala

Contatto : metmap@orbifly.com




FONTI E CREDITI :

   NOAA